createdAt,value
2022-09-03T00:00:35.384Z,12.13
2022-09-03T00:01:35.341Z,12.08
2022-09-03T00:02:35.270Z,12.03
2022-09-03T00:03:35.150Z,11.89
2022-09-03T00:04:35.067Z,11.84
2022-09-03T00:05:34.984Z,11.97
2022-09-03T00:06:34.911Z,12.00
2022-09-03T00:07:34.835Z,11.98
2022-09-03T00:08:34.799Z,12.08
2022-09-03T00:09:34.671Z,12.09
2022-09-03T00:10:34.593Z,11.93
2022-09-03T00:11:34.515Z,11.93
2022-09-03T00:12:34.438Z,11.94
2022-09-03T00:13:34.353Z,11.93
2022-09-03T00:14:34.278Z,11.93
2022-09-03T00:15:34.228Z,11.78
2022-09-03T00:16:34.122Z,11.93
2022-09-03T00:17:34.050Z,11.78
2022-09-03T00:18:33.966Z,11.67
2022-09-03T00:19:33.888Z,11.71
2022-09-03T00:20:33.808Z,11.75
2022-09-03T00:21:33.728Z,11.72
2022-09-03T00:22:33.650Z,11.59
2022-09-03T00:23:33.567Z,11.56
2022-09-03T00:24:33.492Z,11.51
2022-09-03T00:25:33.414Z,11.53
2022-09-03T00:26:33.335Z,11.43
2022-09-03T00:27:33.252Z,11.46
2022-09-03T00:28:33.175Z,11.32
2022-09-03T00:29:33.098Z,11.36
2022-09-03T00:30:33.024Z,11.41
2022-09-03T00:31:33.118Z,11.34
2022-09-03T00:32:32.860Z,11.31
2022-09-03T00:33:32.779Z,11.42
2022-09-03T00:34:32.703Z,11.39
2022-09-03T00:35:32.623Z,11.43
2022-09-03T00:36:32.550Z,11.56
2022-09-03T00:37:37.110Z,11.61
2022-09-03T00:38:32.386Z,11.57
2022-09-03T00:39:32.389Z,11.65
2022-09-03T00:40:32.225Z,11.71
2022-09-03T00:41:32.152Z,11.68
2022-09-03T00:42:32.073Z,11.60
2022-09-03T00:43:31.988Z,11.46
2022-09-03T00:44:31.914Z,11.43
2022-09-03T00:45:31.834Z,11.36
2022-09-03T00:46:31.804Z,11.31
2022-09-03T00:47:31.680Z,11.38
2022-09-03T00:48:31.849Z,11.36
2022-09-03T00:49:31.515Z,11.32
2022-09-03T00:50:31.446Z,11.41
2022-09-03T00:51:31.356Z,11.38
2022-09-03T00:52:33.688Z,11.43
2022-09-03T00:53:31.199Z,11.38
2022-09-03T00:54:31.125Z,11.38
2022-09-03T00:55:31.046Z,11.41
2022-09-03T00:56:30.963Z,11.43
2022-09-03T00:57:30.880Z,11.53
2022-09-03T00:58:30.811Z,11.47
2022-09-03T00:59:30.721Z,11.54
2022-09-03T01:00:30.650Z,11.39
2022-09-03T01:01:30.720Z,11.56
2022-09-03T01:02:30.588Z,11.42
2022-09-03T01:03:30.409Z,11.35
2022-09-03T01:04:30.331Z,11.53
2022-09-03T01:05:30.251Z,11.53
2022-09-03T01:06:30.169Z,11.46
2022-09-03T01:07:30.092Z,11.42
2022-09-03T01:08:30.017Z,11.46
2022-09-03T01:09:29.932Z,11.34
2022-09-03T01:10:29.853Z,11.39
2022-09-03T01:11:29.776Z,11.41
2022-09-03T01:12:29.709Z,11.39
2022-09-03T01:13:29.618Z,11.46
2022-09-03T01:14:29.541Z,11.35
2022-09-03T01:15:29.530Z,11.35
2022-09-03T01:16:29.382Z,11.34
2022-09-03T01:17:29.310Z,11.41
2022-09-03T01:18:29.222Z,11.34
2022-09-03T01:19:29.145Z,11.32
2022-09-03T01:20:29.066Z,11.32
2022-09-03T01:21:28.984Z,11.38
2022-09-03T01:22:28.906Z,11.35
2022-09-03T01:23:28.828Z,11.41
2022-09-03T01:24:28.748Z,11.36
2022-09-03T01:25:28.668Z,11.38
2022-09-03T01:26:28.585Z,11.32
2022-09-03T01:27:28.509Z,11.39
2022-09-03T01:28:28.442Z,11.38
2022-09-03T01:29:28.350Z,11.35
2022-09-03T01:30:28.271Z,11.31
2022-09-03T01:31:28.221Z,11.34
2022-09-03T01:32:28.114Z,11.34
2022-09-03T01:33:28.032Z,11.28
2022-09-03T01:34:27.959Z,11.18
2022-09-03T01:35:27.878Z,11.14
2022-09-03T01:36:27.797Z,11.11
2022-09-03T01:37:27.719Z,11.11
2022-09-03T01:38:27.636Z,11.11
2022-09-03T01:39:27.684Z,11.14
2022-09-03T01:40:27.479Z,11.11
2022-09-03T01:41:27.400Z,11.17
2022-09-03T01:42:27.323Z,11.14
2022-09-03T01:43:27.241Z,11.13
2022-09-03T01:44:27.163Z,11.05
2022-09-03T01:45:27.079Z,11.05
2022-09-03T01:46:27.056Z,11.13
2022-09-03T01:47:26.930Z,11.13
2022-09-03T01:48:26.850Z,11.14
2022-09-03T01:49:26.763Z,11.16
2022-09-03T01:50:26.684Z,11.23
2022-09-03T01:51:26.613Z,11.24
2022-09-03T01:52:26.525Z,11.24
2022-09-03T01:53:26.444Z,11.23
2022-09-03T01:54:26.378Z,11.21
2022-09-03T01:55:26.294Z,11.29
2022-09-03T01:56:26.212Z,11.21
2022-09-03T01:57:35.461Z,11.26
2022-09-03T01:58:26.051Z,11.23
2022-09-03T01:59:25.968Z,11.16
2022-09-03T02:00:25.893Z,11.23
2022-09-03T02:01:25.864Z,11.24
2022-09-03T02:02:25.906Z,11.17
2022-09-03T02:03:25.653Z,11.14
2022-09-03T02:04:25.572Z,11.05
2022-09-03T02:05:25.499Z,10.99
2022-09-03T02:06:25.416Z,10.98
2022-09-03T02:07:25.340Z,10.92
2022-09-03T02:08:25.465Z,10.87
2022-09-03T02:09:25.178Z,10.85
2022-09-03T02:10:25.102Z,10.93
2022-09-03T02:11:25.018Z,10.84
2022-09-03T02:12:24.945Z,10.98
2022-09-03T02:13:24.860Z,10.85
2022-09-03T02:14:24.782Z,10.92
2022-09-03T02:15:24.787Z,10.87
2022-09-03T02:16:24.626Z,10.69
2022-09-03T02:17:24.544Z,10.65
2022-09-03T02:18:24.517Z,10.58
2022-09-03T02:19:24.386Z,10.43
2022-09-03T02:20:24.303Z,10.41
2022-09-03T02:21:24.229Z,10.40
2022-09-03T02:22:24.147Z,10.43
2022-09-03T02:23:28.257Z,10.39
2022-09-03T02:24:23.987Z,10.37
2022-09-03T02:25:23.904Z,10.41
2022-09-03T02:26:23.841Z,10.41
2022-09-03T02:27:23.750Z,10.49
2022-09-03T02:28:23.701Z,10.44
2022-09-03T02:29:23.595Z,10.59
2022-09-03T02:30:23.510Z,10.62
2022-09-03T02:31:23.483Z,10.60
2022-09-03T02:32:23.350Z,10.69
2022-09-03T02:33:23.274Z,10.60
2022-09-03T02:34:23.209Z,10.60
2022-09-03T02:35:23.112Z,10.62
2022-09-03T02:36:23.029Z,10.60
2022-09-03T02:37:22.955Z,10.58
2022-09-03T02:38:22.971Z,10.58
2022-09-03T02:39:22.845Z,10.56
2022-09-03T02:40:22.716Z,10.58
2022-09-03T02:41:22.638Z,10.55
2022-09-03T02:42:22.556Z,10.53
2022-09-03T02:43:26.005Z,10.53
2022-09-03T02:44:22.392Z,10.47
2022-09-03T02:45:22.314Z,10.53
2022-09-03T02:46:22.357Z,10.49
2022-09-03T02:47:22.164Z,10.44
2022-09-03T02:48:22.115Z,10.53
2022-09-03T02:49:21.997Z,10.47
2022-09-03T02:50:21.919Z,10.44
2022-09-03T02:51:21.840Z,10.53
2022-09-03T02:52:21.761Z,10.41
2022-09-03T02:53:21.677Z,10.47
2022-09-03T02:54:21.597Z,10.44
2022-09-03T02:55:21.524Z,10.47
2022-09-03T02:56:21.441Z,10.40
2022-09-03T02:57:27.493Z,10.43
2022-09-03T02:58:21.360Z,10.37
2022-09-03T02:59:21.207Z,10.37
2022-09-03T03:00:21.120Z,10.25
2022-09-03T03:01:23.818Z,10.25
2022-09-03T03:02:21.038Z,10.33
2022-09-03T03:03:20.882Z,10.25
2022-09-03T03:04:20.799Z,10.28
2022-09-03T03:05:20.731Z,10.28
2022-09-03T03:06:20.641Z,10.31
2022-09-03T03:07:20.560Z,10.34
2022-09-03T03:08:20.486Z,10.47
2022-09-03T03:09:20.404Z,10.43
2022-09-03T03:10:20.325Z,10.43
2022-09-03T03:11:20.242Z,10.43
2022-09-03T03:12:20.160Z,10.41
2022-09-03T03:13:20.097Z,10.49
2022-09-03T03:14:20.003Z,10.41
2022-09-03T03:15:19.926Z,10.40
2022-09-03T03:16:19.901Z,10.51
2022-09-03T03:17:19.767Z,10.40
2022-09-03T03:18:19.751Z,10.47
2022-09-03T03:19:19.612Z,10.46
2022-09-03T03:20:19.531Z,10.46
2022-09-03T03:21:19.445Z,10.46
2022-09-03T03:22:19.363Z,10.47
2022-09-03T03:23:19.292Z,10.43
2022-09-03T03:24:19.208Z,10.41
2022-09-03T03:25:19.125Z,10.41
2022-09-03T03:26:19.050Z,10.25
2022-09-03T03:27:18.973Z,10.25
2022-09-03T03:28:19.000Z,10.26
2022-09-03T03:29:18.806Z,10.16
2022-09-03T03:30:18.732Z,10.03
2022-09-03T03:31:18.729Z,10.10
2022-09-03T03:32:18.565Z,10.06
2022-09-03T03:33:18.489Z,10.07
2022-09-03T03:34:18.408Z,10.06
2022-09-03T03:35:18.330Z,10.06
2022-09-03T03:36:18.246Z,9.93
2022-09-03T03:37:18.170Z,10.00
2022-09-03T03:38:18.094Z,9.93
2022-09-03T03:39:18.047Z,9.93
2022-09-03T03:40:17.927Z,9.98
2022-09-03T03:41:17.851Z,10.07
2022-09-03T03:42:17.779Z,10.01
2022-09-03T03:43:17.689Z,10.04
2022-09-03T03:44:17.610Z,10.06
2022-09-03T03:45:17.532Z,10.18
2022-09-03T03:46:17.490Z,10.16
2022-09-03T03:47:17.371Z,10.16
2022-09-03T03:48:17.291Z,10.19
2022-09-03T03:49:17.213Z,10.07
2022-09-03T03:50:17.136Z,10.06
2022-09-03T03:51:17.051Z,9.96
2022-09-03T03:52:16.971Z,9.92
2022-09-03T03:53:16.892Z,9.96
2022-09-03T03:54:17.591Z,9.96
2022-09-03T03:55:16.742Z,9.78
2022-09-03T03:56:16.652Z,9.82
2022-09-03T03:57:16.572Z,9.82
2022-09-03T03:58:16.489Z,9.83
2022-09-03T03:59:16.414Z,9.82
2022-09-03T04:00:16.331Z,9.85
2022-09-03T04:01:16.347Z,9.78
2022-09-03T04:02:16.204Z,9.80
2022-09-03T04:03:16.094Z,9.80
2022-09-03T04:04:16.013Z,9.96
2022-09-03T04:05:15.930Z,9.98
2022-09-03T04:06:15.852Z,9.96
2022-09-03T04:07:15.771Z,10.04
2022-09-03T04:08:15.730Z,10.06
2022-09-03T04:09:15.614Z,10.13
2022-09-03T04:10:15.529Z,10.11
2022-09-03T04:11:15.454Z,10.11
2022-09-03T04:12:15.371Z,10.13
2022-09-03T04:13:15.291Z,10.25
2022-09-03T04:14:15.211Z,10.26
2022-09-03T04:15:15.138Z,10.31
2022-09-03T04:16:15.090Z,10.25
2022-09-03T04:17:14.972Z,10.31
2022-09-03T04:18:14.940Z,10.34
2022-09-03T04:19:14.812Z,10.41
2022-09-03T04:20:14.731Z,10.49
2022-09-03T04:21:14.652Z,10.47
2022-09-03T04:22:14.573Z,10.55
2022-09-03T04:23:14.492Z,10.62
2022-09-03T04:24:14.411Z,10.55
2022-09-03T04:25:14.339Z,10.55
2022-09-03T04:26:14.249Z,10.67
2022-09-03T04:27:14.171Z,10.66
2022-09-03T04:28:14.092Z,10.66
2022-09-03T04:29:14.014Z,10.63
2022-09-03T04:30:13.944Z,10.71
2022-09-03T04:31:13.906Z,10.59
2022-09-03T04:32:13.774Z,10.71
2022-09-03T04:33:16.173Z,10.67
2022-09-03T04:34:13.616Z,10.71
2022-09-03T04:35:13.538Z,10.65
2022-09-03T04:36:13.454Z,10.74
2022-09-03T04:37:13.377Z,10.69
2022-09-03T04:38:13.296Z,10.67
2022-09-03T04:39:13.218Z,10.83
2022-09-03T04:40:13.132Z,10.80
2022-09-03T04:41:13.061Z,10.77
2022-09-03T04:42:12.972Z,10.74
2022-09-03T04:43:12.897Z,10.88
2022-09-03T04:44:12.822Z,10.85
2022-09-03T04:45:12.734Z,10.87
2022-09-03T04:46:16.098Z,10.77
2022-09-03T04:47:12.577Z,10.78
2022-09-03T04:48:12.495Z,10.91
2022-09-03T04:49:12.419Z,10.88
2022-09-03T04:50:12.335Z,10.81
2022-09-03T04:51:12.259Z,10.87
2022-09-03T04:52:12.176Z,10.92
2022-09-03T04:53:12.095Z,10.91
2022-09-03T04:54:12.021Z,10.92
2022-09-03T04:55:11.937Z,10.88
2022-09-03T04:56:11.865Z,10.92
2022-09-03T04:57:11.781Z,10.92
2022-09-03T04:58:11.701Z,11.02
2022-09-03T04:59:11.628Z,10.96
2022-09-03T05:00:11.538Z,11.00
2022-09-03T05:01:11.554Z,11.02
2022-09-03T05:02:11.434Z,10.95
2022-09-03T05:03:11.299Z,10.95
2022-09-03T05:04:11.221Z,10.98
2022-09-03T05:05:11.141Z,10.96
2022-09-03T05:06:11.066Z,10.88
2022-09-03T05:07:10.986Z,10.87
2022-09-03T05:08:10.903Z,10.91
2022-09-03T05:09:10.822Z,10.88
2022-09-03T05:10:10.754Z,10.91
2022-09-03T05:11:10.668Z,10.92
2022-09-03T05:12:10.586Z,10.87
2022-09-03T05:13:10.503Z,10.88
2022-09-03T05:14:10.422Z,10.91
2022-09-03T05:15:10.342Z,10.98
2022-09-03T05:16:10.325Z,11.00
2022-09-03T05:17:10.184Z,11.05
2022-09-03T05:18:10.108Z,11.00
2022-09-03T05:19:10.024Z,11.08
2022-09-03T05:20:09.951Z,11.16
2022-09-03T05:21:09.870Z,11.03
2022-09-03T05:22:09.786Z,11.10
2022-09-03T05:23:09.714Z,11.14
2022-09-03T05:24:09.627Z,11.13
2022-09-03T05:25:09.651Z,11.14
2022-09-03T05:26:10.953Z,11.23
2022-09-03T05:27:09.389Z,11.21
2022-09-03T05:28:09.308Z,11.13
2022-09-03T05:29:09.226Z,11.21
2022-09-03T05:30:09.148Z,11.17
2022-09-03T05:31:09.072Z,11.03
2022-09-03T05:32:08.993Z,11.14
2022-09-03T05:33:08.919Z,11.13
2022-09-03T05:34:08.828Z,11.13
2022-09-03T05:35:09.299Z,11.10
2022-09-03T05:36:08.672Z,11.11
2022-09-03T05:37:08.593Z,11.21
2022-09-03T05:38:08.508Z,11.20
2022-09-03T05:39:08.432Z,11.23
2022-09-03T05:40:08.356Z,11.11
2022-09-03T05:41:08.282Z,11.21
2022-09-03T05:42:08.192Z,11.24
2022-09-03T05:43:08.705Z,11.32
2022-09-03T05:44:08.037Z,11.32
2022-09-03T05:45:07.953Z,11.32
2022-09-03T05:46:07.924Z,11.39
2022-09-03T05:47:07.799Z,11.46
2022-09-03T05:48:07.716Z,11.46
2022-09-03T05:49:07.649Z,11.56
2022-09-03T05:50:07.555Z,11.53
2022-09-03T05:51:07.488Z,11.65
2022-09-03T05:52:07.396Z,11.76
2022-09-03T05:53:07.319Z,11.71
2022-09-03T05:54:07.239Z,11.78
2022-09-03T05:55:09.629Z,11.75
2022-09-03T05:56:07.077Z,11.89
2022-09-03T05:57:07.004Z,11.93
2022-09-03T05:58:06.918Z,11.83
2022-09-03T05:59:06.840Z,11.93
2022-09-03T06:00:06.763Z,11.95
2022-09-03T06:01:06.688Z,11.95
2022-09-03T06:02:06.674Z,12.08
2022-09-03T06:03:06.623Z,12.06
2022-09-03T06:04:06.443Z,12.05
2022-09-03T06:05:06.367Z,12.08
2022-09-03T06:06:06.283Z,12.11
2022-09-03T06:07:06.209Z,12.11
2022-09-03T06:08:06.128Z,12.19
2022-09-03T06:09:06.052Z,12.24
2022-09-03T06:10:05.983Z,12.19
2022-09-03T06:11:05.891Z,12.21
2022-09-03T06:12:05.813Z,12.24
2022-09-03T06:13:05.728Z,12.23
2022-09-03T06:14:05.657Z,12.27
2022-09-03T06:15:05.575Z,12.30
2022-09-03T06:16:05.541Z,12.39
2022-09-03T06:17:05.411Z,12.42
2022-09-03T06:18:05.341Z,12.41
2022-09-03T06:19:05.254Z,12.44
2022-09-03T06:20:05.180Z,12.46
2022-09-03T06:21:05.099Z,12.51
2022-09-03T06:22:05.016Z,12.48
2022-09-03T06:23:04.939Z,12.59
2022-09-03T06:24:04.862Z,12.60
2022-09-03T06:25:04.782Z,12.64
2022-09-03T06:26:05.619Z,12.69
2022-09-03T06:27:04.625Z,12.64
2022-09-03T06:28:04.543Z,12.73
2022-09-03T06:29:04.463Z,12.74
2022-09-03T06:30:04.385Z,12.84
2022-09-03T06:31:04.308Z,12.84
2022-09-03T06:32:04.275Z,12.86
2022-09-03T06:33:04.148Z,12.89
2022-09-03T06:34:04.459Z,13.04
2022-09-03T06:35:03.998Z,12.94
2022-09-03T06:36:08.533Z,13.03
2022-09-03T06:37:03.830Z,13.14
2022-09-03T06:38:03.753Z,13.14
2022-09-03T06:39:03.676Z,13.24
2022-09-03T06:40:03.665Z,13.28
2022-09-03T06:41:03.521Z,13.41
2022-09-03T06:42:03.441Z,13.44
2022-09-03T06:43:03.357Z,13.47
2022-09-03T06:44:03.606Z,13.50
2022-09-03T06:45:03.205Z,13.62
2022-09-03T06:46:03.190Z,13.61
2022-09-03T06:47:03.041Z,13.56
2022-09-03T06:48:02.961Z,13.78
2022-09-03T06:49:02.895Z,13.84
2022-09-03T06:50:02.809Z,13.94
2022-09-03T06:51:02.729Z,13.91
2022-09-03T06:52:02.648Z,13.98
2022-09-03T06:53:02.568Z,14.11
2022-09-03T06:54:02.498Z,14.11
2022-09-03T06:55:02.409Z,14.23
2022-09-03T06:56:02.332Z,14.32
2022-09-03T06:57:02.255Z,14.27
2022-09-03T06:58:02.179Z,14.34
2022-09-03T06:59:02.097Z,14.38
2022-09-03T07:00:02.021Z,14.36
2022-09-03T07:01:02.096Z,14.54
2022-09-03T07:02:01.984Z,14.61
2022-09-03T07:03:01.781Z,14.59
2022-09-03T07:04:01.707Z,14.78
2022-09-03T07:05:01.623Z,14.87
2022-09-03T07:06:01.548Z,14.88
2022-09-03T07:07:01.467Z,14.90
2022-09-03T07:08:01.394Z,14.94
2022-09-03T07:09:01.311Z,14.98
2022-09-03T07:10:01.232Z,15.16
2022-09-03T07:11:01.160Z,15.16
2022-09-03T07:12:01.081Z,15.24
2022-09-03T07:13:00.997Z,15.33
2022-09-03T07:14:00.922Z,15.38
2022-09-03T07:15:00.837Z,15.34
2022-09-03T07:16:00.810Z,15.48
2022-09-03T07:17:00.683Z,15.57
2022-09-03T07:18:00.607Z,15.63
2022-09-03T07:19:00.530Z,15.60
2022-09-03T07:20:00.454Z,15.60
2022-09-03T07:21:00.373Z,15.60
2022-09-03T07:22:00.295Z,15.61
2022-09-03T07:23:00.219Z,15.61
2022-09-03T07:24:00.135Z,15.66
2022-09-03T07:25:00.157Z,15.76
2022-09-03T07:26:00.031Z,15.68
2022-09-03T07:26:59.903Z,15.75
2022-09-03T07:27:59.824Z,15.76
2022-09-03T07:28:59.765Z,15.79
2022-09-03T07:29:59.674Z,15.76
2022-09-03T07:30:59.591Z,15.78
2022-09-03T07:31:59.560Z,15.86
2022-09-03T07:32:59.431Z,16.03
2022-09-03T07:33:59.356Z,16.07
2022-09-03T07:34:59.276Z,16.00
2022-09-03T07:35:59.205Z,16.12
2022-09-03T07:36:59.123Z,16.16
2022-09-03T07:37:59.044Z,16.14
2022-09-03T07:38:58.965Z,16.23
2022-09-03T07:39:58.956Z,16.29
2022-09-03T07:40:58.812Z,16.18
2022-09-03T07:41:58.736Z,16.35
2022-09-03T07:42:58.656Z,16.35
2022-09-03T07:43:58.591Z,16.38
2022-09-03T07:44:58.502Z,16.37
2022-09-03T07:45:58.423Z,16.41
2022-09-03T07:46:58.383Z,16.41
2022-09-03T07:47:58.267Z,16.41
2022-09-03T07:48:58.188Z,16.42
2022-09-03T07:49:58.116Z,16.53
2022-09-03T07:50:58.036Z,16.57
2022-09-03T07:51:57.955Z,16.60
2022-09-03T07:52:57.878Z,16.65
2022-09-03T07:53:57.801Z,16.63
2022-09-03T07:54:57.736Z,16.71
2022-09-03T07:55:57.651Z,16.75
2022-09-03T07:56:57.619Z,16.77
2022-09-03T07:57:57.492Z,16.78
2022-09-03T07:58:57.425Z,16.74
2022-09-03T07:59:57.342Z,16.78
2022-09-03T08:00:57.369Z,16.80
2022-09-03T08:01:57.186Z,16.85
2022-09-03T08:02:57.106Z,16.88
2022-09-03T08:03:57.066Z,16.88
2022-09-03T08:04:56.956Z,16.95
2022-09-03T08:05:56.877Z,16.96
2022-09-03T08:06:56.798Z,17.00
2022-09-03T08:07:56.715Z,16.96
2022-09-03T08:08:58.755Z,17.05
2022-09-03T08:09:56.913Z,17.00
2022-09-03T08:10:56.487Z,17.13
2022-09-03T08:11:56.407Z,17.21
2022-09-03T08:12:56.328Z,17.23
2022-09-03T08:13:56.254Z,17.18
2022-09-03T08:14:56.177Z,17.21
2022-09-03T08:15:56.192Z,17.21
2022-09-03T08:16:56.017Z,17.39
2022-09-03T08:17:55.943Z,17.26
2022-09-03T08:18:55.866Z,17.46
2022-09-03T08:19:55.791Z,17.51
2022-09-03T08:20:55.714Z,17.60
2022-09-03T08:21:55.638Z,17.64
2022-09-03T08:22:55.666Z,17.74
2022-09-03T08:23:55.484Z,17.79
2022-09-03T08:24:55.403Z,17.92
2022-09-03T08:25:55.329Z,18.04
2022-09-03T08:26:55.249Z,18.09
2022-09-03T08:27:55.171Z,18.14
2022-09-03T08:28:55.094Z,18.10
2022-09-03T08:29:55.018Z,18.10
2022-09-03T08:30:54.939Z,18.24
2022-09-03T08:31:54.899Z,18.24
2022-09-03T08:32:54.789Z,18.21
2022-09-03T08:33:54.712Z,18.31
2022-09-03T08:34:54.634Z,18.27
2022-09-03T08:35:54.560Z,18.25
2022-09-03T08:36:54.478Z,18.39
2022-09-03T08:37:56.774Z,18.42
2022-09-03T08:38:54.327Z,18.46
2022-09-03T08:39:54.291Z,18.58
2022-09-03T08:40:54.178Z,18.55
2022-09-03T08:41:54.100Z,18.52
2022-09-03T08:42:54.021Z,18.55
2022-09-03T08:43:53.943Z,18.49
2022-09-03T08:44:53.867Z,18.47
2022-09-03T08:45:53.793Z,18.44
2022-09-03T08:46:53.795Z,18.42
2022-09-03T08:47:53.639Z,18.44
2022-09-03T08:48:53.561Z,18.53
2022-09-03T08:49:53.485Z,18.50
2022-09-03T08:50:53.409Z,18.58
2022-09-03T08:51:53.334Z,18.61
2022-09-03T08:52:53.254Z,18.62
2022-09-03T08:53:53.177Z,18.58
2022-09-03T08:54:53.099Z,18.59
2022-09-03T08:55:53.032Z,18.52
2022-09-03T08:56:52.948Z,18.62
2022-09-03T08:57:52.870Z,18.71
2022-09-03T08:58:52.801Z,18.69
2022-09-03T08:59:52.720Z,18.64
2022-09-03T09:00:52.653Z,18.68
2022-09-03T09:01:52.700Z,18.76
2022-09-03T09:02:52.566Z,18.76
2022-09-03T09:03:52.418Z,18.94
2022-09-03T09:04:52.343Z,18.82
2022-09-03T09:05:52.262Z,18.90
2022-09-03T09:06:52.182Z,18.98
2022-09-03T09:07:52.111Z,18.95
2022-09-03T09:08:52.033Z,18.97
2022-09-03T09:09:51.960Z,19.02
2022-09-03T09:10:51.881Z,19.05
2022-09-03T09:11:52.291Z,19.05
2022-09-03T09:12:51.729Z,19.11
2022-09-03T09:13:51.653Z,19.01
2022-09-03T09:14:51.574Z,19.15
2022-09-03T09:15:51.561Z,19.24
2022-09-03T09:16:51.427Z,19.17
2022-09-03T09:17:51.740Z,19.21
2022-09-03T09:18:51.269Z,19.28
2022-09-03T09:19:51.195Z,19.28
2022-09-03T09:20:51.119Z,19.32
2022-09-03T09:21:51.046Z,19.38
2022-09-03T09:22:50.972Z,19.48
2022-09-03T09:23:50.896Z,19.58
2022-09-03T09:24:50.815Z,19.48
2022-09-03T09:25:50.742Z,19.61
2022-09-03T09:26:50.669Z,19.73
2022-09-03T09:27:51.117Z,19.69
2022-09-03T09:28:52.036Z,19.72
2022-09-03T09:29:51.549Z,19.98
2022-09-03T09:30:50.395Z,20.10
2022-09-03T09:31:50.294Z,20.30
2022-09-03T09:32:50.212Z,20.37
2022-09-03T09:33:50.136Z,20.53
2022-09-03T09:34:52.599Z,20.54
2022-09-03T09:35:49.989Z,20.64
2022-09-03T09:36:49.909Z,20.71
2022-09-03T09:37:49.835Z,20.83
2022-09-03T09:38:49.756Z,20.82
2022-09-03T09:39:49.703Z,20.84
2022-09-03T09:40:49.616Z,20.64
2022-09-03T09:41:49.532Z,20.64
2022-09-03T09:42:49.461Z,20.79
2022-09-03T09:43:49.379Z,20.71
2022-09-03T09:44:49.304Z,20.79
2022-09-03T09:45:49.229Z,20.75
2022-09-03T09:46:54.083Z,20.76
2022-09-03T09:47:49.079Z,20.74
2022-09-03T09:48:49.004Z,20.83
2022-09-03T09:49:48.931Z,20.87
2022-09-03T09:50:48.852Z,20.93
2022-09-03T09:51:48.787Z,21.05
2022-09-03T09:52:50.738Z,21.06
2022-09-03T09:53:48.629Z,21.06
2022-09-03T09:54:48.555Z,21.11
2022-09-03T09:55:48.478Z,21.20
2022-09-03T09:56:48.424Z,21.23
2022-09-03T09:57:48.327Z,21.38
2022-09-03T09:58:48.257Z,21.46
2022-09-03T09:59:48.184Z,21.56
2022-09-03T10:00:48.112Z,21.66
2022-09-03T10:01:48.090Z,21.74
2022-09-03T10:02:48.024Z,21.75
2022-09-03T10:03:47.882Z,21.85
2022-09-03T10:04:47.805Z,21.79
2022-09-03T10:05:47.731Z,21.76
2022-09-03T10:06:47.658Z,21.86
2022-09-03T10:07:47.587Z,21.81
2022-09-03T10:08:47.505Z,21.85
2022-09-03T10:09:47.437Z,21.92
2022-09-03T10:10:47.357Z,21.95
2022-09-03T10:11:47.287Z,22.04
2022-09-03T10:12:47.214Z,22.07
2022-09-03T10:13:47.139Z,22.15
2022-09-03T10:14:47.065Z,22.04
2022-09-03T10:15:47.049Z,22.07
2022-09-03T10:16:46.912Z,22.10
2022-09-03T10:17:46.845Z,22.05
2022-09-03T10:18:46.765Z,22.01
2022-09-03T10:19:46.694Z,22.04
2022-09-03T10:20:46.620Z,22.19
2022-09-03T10:21:46.556Z,22.16
2022-09-03T10:22:56.478Z,22.19
2022-09-03T10:23:46.399Z,22.32
2022-09-03T10:24:46.334Z,22.41
2022-09-03T10:25:46.248Z,22.46
2022-09-03T10:26:46.176Z,22.42
2022-09-03T10:27:46.103Z,22.53
2022-09-03T10:28:46.025Z,22.60
2022-09-03T10:29:45.956Z,22.50
2022-09-03T10:30:45.895Z,22.47
2022-09-03T10:31:45.807Z,22.56
2022-09-03T10:32:48.373Z,22.52
2022-09-03T10:33:45.680Z,22.54
2022-09-03T10:34:45.622Z,22.63
2022-09-03T10:35:45.512Z,22.65
2022-09-03T10:36:45.439Z,22.38
2022-09-03T10:37:45.373Z,22.17
2022-09-03T10:38:45.296Z,22.13
2022-09-03T10:39:48.886Z,22.08
2022-09-03T10:40:45.144Z,21.97
2022-09-03T10:41:45.071Z,22.01
2022-09-03T10:42:44.997Z,22.00
2022-09-03T10:43:44.935Z,21.92
2022-09-03T10:44:44.856Z,22.02
2022-09-03T10:45:44.780Z,22.08
2022-09-03T10:46:44.785Z,22.24
2022-09-03T10:47:44.629Z,22.39
2022-09-03T10:48:44.669Z,22.42
2022-09-03T10:49:44.483Z,22.65
2022-09-03T10:50:44.416Z,22.65
2022-09-03T10:51:49.348Z,22.83
2022-09-03T10:52:44.269Z,22.92
2022-09-03T10:53:44.192Z,22.89
2022-09-03T10:54:44.134Z,22.84
2022-09-03T10:55:44.043Z,22.89
2022-09-03T10:56:43.973Z,22.78
2022-09-03T10:57:43.900Z,22.68
2022-09-03T10:58:43.831Z,22.67
2022-09-03T10:59:43.756Z,22.62
2022-09-03T11:00:43.678Z,22.77
2022-09-03T11:01:43.682Z,22.81
2022-09-03T11:02:43.599Z,22.84
2022-09-03T11:03:43.466Z,22.99
2022-09-03T11:04:43.387Z,23.20
2022-09-03T11:05:43.314Z,23.31
2022-09-03T11:06:43.244Z,23.15
2022-09-03T11:07:43.169Z,22.99
2022-09-03T11:08:43.097Z,22.93
2022-09-03T11:09:43.023Z,22.84
2022-09-03T11:10:42.951Z,22.86
2022-09-03T11:11:42.879Z,22.75
2022-09-03T11:12:42.806Z,22.72
2022-09-03T11:13:42.732Z,22.72
2022-09-03T11:14:42.662Z,22.77
2022-09-03T11:15:42.603Z,22.89
2022-09-03T11:16:42.519Z,22.75
2022-09-03T11:17:42.446Z,22.77
2022-09-03T11:18:42.371Z,22.90
2022-09-03T11:19:42.294Z,22.89
2022-09-03T11:20:42.222Z,22.79
2022-09-03T11:21:42.148Z,22.79
2022-09-03T11:22:42.080Z,22.74
2022-09-03T11:23:42.002Z,22.90
2022-09-03T11:24:41.935Z,23.15
2022-09-03T11:25:41.861Z,23.26
2022-09-03T11:26:41.786Z,23.45
2022-09-03T11:27:41.721Z,23.55
2022-09-03T11:28:41.642Z,23.65
2022-09-03T11:29:41.566Z,23.60
2022-09-03T11:30:41.543Z,23.61
2022-09-03T11:31:41.423Z,23.58
2022-09-03T11:32:41.350Z,23.58
2022-09-03T11:33:41.280Z,23.70
2022-09-03T11:34:41.227Z,23.68
2022-09-03T11:35:41.136Z,23.68
2022-09-03T11:36:43.695Z,23.79
2022-09-03T11:37:40.987Z,23.85
2022-09-03T11:38:40.919Z,23.97
2022-09-03T11:39:40.901Z,24.16
2022-09-03T11:40:40.774Z,24.12
2022-09-03T11:41:40.700Z,24.20
2022-09-03T11:42:40.646Z,24.04
2022-09-03T11:43:40.555Z,24.02
2022-09-03T11:44:42.748Z,23.98
2022-09-03T11:45:40.544Z,23.89
2022-09-03T11:46:40.337Z,23.89
2022-09-03T11:47:40.266Z,23.92
2022-09-03T11:48:40.199Z,24.00
2022-09-03T11:49:40.123Z,24.02
2022-09-03T11:50:40.056Z,23.92
2022-09-03T11:51:39.977Z,23.95
2022-09-03T11:52:39.908Z,23.80
2022-09-03T11:53:39.837Z,23.83
2022-09-03T11:54:39.762Z,23.87
2022-09-03T11:55:43.710Z,23.92
2022-09-03T11:56:39.622Z,23.85
2022-09-03T11:57:39.553Z,23.89
2022-09-03T11:58:39.474Z,23.83
2022-09-03T11:59:39.401Z,23.75
2022-09-03T12:00:39.333Z,23.80
2022-09-03T12:01:39.260Z,23.67
2022-09-03T12:02:39.472Z,23.68
2022-09-03T12:03:39.115Z,23.61
2022-09-03T12:04:39.153Z,23.55
2022-09-03T12:05:39.032Z,23.49
2022-09-03T12:06:38.903Z,23.46
2022-09-03T12:07:38.831Z,23.48
2022-09-03T12:08:38.755Z,23.55
2022-09-03T12:09:38.683Z,23.48
2022-09-03T12:10:38.620Z,23.49
2022-09-03T12:11:38.540Z,23.55
2022-09-03T12:12:38.482Z,23.64
2022-09-03T12:13:38.402Z,23.55
2022-09-03T12:14:38.328Z,23.55
2022-09-03T12:15:38.293Z,23.56
2022-09-03T12:16:38.183Z,23.53
2022-09-03T12:17:38.117Z,23.42
2022-09-03T12:18:38.034Z,23.38
2022-09-03T12:19:37.972Z,23.46
2022-09-03T12:20:37.902Z,23.42
2022-09-03T12:21:37.822Z,23.43
2022-09-03T12:22:37.748Z,23.56
2022-09-03T12:23:37.680Z,23.55
2022-09-03T12:24:38.313Z,23.49
2022-09-03T12:25:37.600Z,23.42
2022-09-03T12:26:37.462Z,23.43
2022-09-03T12:27:37.390Z,23.43
2022-09-03T12:28:37.321Z,23.38
2022-09-03T12:29:37.241Z,23.37
2022-09-03T12:30:37.197Z,23.46
2022-09-03T12:31:41.243Z,23.46
2022-09-03T12:32:37.044Z,23.55
2022-09-03T12:33:36.956Z,23.56
2022-09-03T12:34:36.883Z,23.71
2022-09-03T12:36:36.751Z,23.71
2022-09-03T12:39:00.726Z,23.61
2022-09-03T12:41:22.980Z,23.55
2022-09-03T12:41:36.439Z,23.58
2022-09-03T12:42:36.308Z,23.64
2022-09-03T12:43:38.175Z,23.60
2022-09-03T12:44:36.164Z,23.72
2022-09-03T12:46:36.062Z,23.75
2022-09-03T12:47:37.281Z,23.72
2022-09-03T12:48:35.875Z,23.60
2022-09-03T12:49:35.816Z,23.56
2022-09-03T12:50:35.733Z,23.48
2022-09-03T12:51:55.516Z,23.34
2022-09-03T12:52:35.591Z,23.27
2022-09-03T12:53:35.512Z,23.40
2022-09-03T12:54:35.442Z,23.38
2022-09-03T12:55:35.377Z,23.43
2022-09-03T12:56:35.304Z,23.43